Terminal Aerodrome Forecast
Issued by NWS Portland, ME

Home | Current Version | Previous Version | Text Only | Print | Product List | Glossary On
Versions: 1 2 3 4 5 6 7 8 9 10 11 12 13 14 15 16 17 18 19
242
FTUS41 KGYX 272320
TAFPWM
TAF
KPWM 272320Z 2800/2824 23006KT P6SM SCT040 BKN120
     FM280600 25004KT 5SM BR FEW008 SCT250
     FM281200 31004KT P6SM SCT250
     FM281700 15008KT P6SM SCT250=

USA.gov is the U.S. government's official web portal to all federal, state and local government web resources and services.